Aeroporto :
LOGIN :

Iscrizione | Disclaimer

   EN    FR    IT 

 










Sommario :    VFR   VFR Marginale   IFR   IFR Intensivo   IFR Molto Intensivo
Visibilità : 
Base nubi : 
>= 8 km
>= 3000ft
5 / 8 km
1000 / 3000 ft
1500m / 5 km
500 / 1000 ft
800 / 1500m
200 / 500 ft
< 800m
< 200 ft
Simboli :   Temporali  Nebbia  Neve Forte  Precipitazioni Forti  Vento > 20 kt
SIGMETs :   Varie  Temporali  Ghiacco  Turbolenza  Onda orograficha  Ceneri Vulcaniche






- Altitudine del aeroporto : 586 ft


LIMN - Cameri Air Force Base

ULTIMO METAR :
  • 251555Z VRB01KT 6000 SCT045 13/09 Q1006 RMK BKN BKN100 VIS MIN 6000 WHT

METARs OBSOLETI :
  • 251455Z VRB02KT 4500 BR SCT025 13/09 Q1007 RMK OVC BKN080 VIS MIN 4500 GRN
  • 251355Z 34003KT 4000 BR SCT025 BKN060 12/09 Q1008 RMK OVC VIS MIN 4000 GRN
  • 251255Z VRB01KT 3000 BR SCT020 BKN060 12/09 Q1009 RMK OVC VIS MIN 3000 YLO

TAF TAF LIMN
Valido dal 25 a 15 ore il 26 a 00 ore UTC


251400Z 2515/2524 34005KT 4000 BR SCT025 BKN050
TEMPO 2515/2521 2000 RA BR



MetMap, La meteo Aeronautica in un colpo d'occhio ! - Copyright ORBIFLY Dicembre 2007 - Disclaimer

ORBIFLY MET'MAP TEAM :

Programmazione e sviluppo : Alexandra Zaïnal
Concezione : Baudouin d'Aumeries
Aiuto per la programmazione : Marc-Olivier Méhu
Supporto tecnico e logistico : Manuel Goepfert
Aiuto per la traduzione : Arnaldo La Scala

Contatto : metmap@orbifly.com




FONTI E CREDITI :

   NOAA